Time;durP1;ratioP1;P1;durP2;ratioP2;P2;SDS_P1;SDS_P2;PMS_P1;PMS_P2;Temp;Humidity;BMP_temperature;BMP_pressure;BME280_temperature;BME280_humidity;BME280_pressure;Samples;Min_cycle;Max_cycle;Signal;HPM_P1;HPM_P2
2023/09/13 00:01:13;;;;;;;14.55;4.57;;;;;;;;;;4985407;28;20137;-59
2023/09/13 00:04:02;;;;;;;17.92;5.57;;;;;;;;;;4979512;28;20101;-59
2023/09/13 00:06:54;;;;;;;18.65;4.70;;;;;;;;;;4983205;28;20058;-49
2023/09/13 00:09:42;;;;;;;18.20;5.13;;;;;;;;;;4978507;28;20046;-59
2023/09/13 00:12:36;;;;;;;17.95;6.05;;;;;;;;;;4980955;28;20954;-59
2023/09/13 00:15:23;;;;;;;20.85;5.95;;;;;;;;;;4981029;28;20082;-59
2023/09/13 00:18:16;;;;;;;26.45;5.50;;;;;;;;;;4985513;28;20149;-59
2023/09/13 00:21:04;;;;;;;16.95;5.38;;;;;;;;;;4984701;28;20046;-59
2023/09/13 00:23:57;;;;;;;17.52;6.10;;;;;;;;;;4983843;28;20058;-47
2023/09/13 00:26:51;;;;;;;19.30;6.07;;;;;;;;;;4979932;28;20058;-59
2023/09/13 00:29:45;;;;;;;16.95;5.65;;;;;;;;;;4982299;28;20054;-47
2023/09/13 00:32:33;;;;;;;21.58;6.20;;;;;;;;;;4980444;28;20058;-49
2023/09/13 00:35:27;;;;;;;22.45;6.47;;;;;;;;;;4981471;28;20070;-47
2023/09/13 00:38:20;;;;;;;38.92;7.20;;;;;;;;;;4981066;28;20062;-54
2023/09/13 00:41:08;;;;;;;19.58;6.22;;;;;;;;;;4980121;28;20108;-51
2023/09/13 00:44:01;;;;;;;16.02;5.63;;;;;;;;;;4980410;28;20050;-59
2023/09/13 00:46:49;;;;;;;25.35;6.53;;;;;;;;;;4980272;28;20069;-52
2023/09/13 00:49:44;;;;;;;22.48;6.22;;;;;;;;;;4978151;28;20825;-51
2023/09/13 00:52:31;;;;;;;21.58;5.88;;;;;;;;;;4980881;28;20046;-51
2023/09/13 00:55:26;;;;;;;21.67;6.35;;;;;;;;;;4971962;28;20077;-49
2023/09/13 00:58:21;;;;;;;36.60;6.95;;;;;;;;;;4981064;28;20097;-53
2023/09/13 01:01:15;;;;;;;21.10;6.22;;;;;;;;;;4979250;28;20106;-60
2023/09/13 01:04:03;;;;;;;27.98;7.22;;;;;;;;;;4979971;28;20054;-59
2023/09/13 01:06:57;;;;;;;20.63;6.68;;;;;;;;;;4976642;28;20047;-60
2023/09/13 01:09:44;;;;;;;26.52;6.95;;;;;;;;;;4982057;28;20054;-59
2023/09/13 01:12:38;;;;;;;26.40;7.10;;;;;;;;;;4979558;28;20118;-59
2023/09/13 01:15:28;;;;;;;21.67;6.72;;;;;;;;;;4983904;28;20062;-59
2023/09/13 01:18:24;;;;;;;23.70;7.18;;;;;;;;;;4985105;28;20055;-59
2023/09/13 01:21:19;;;;;;;21.13;6.82;;;;;;;;;;4981770;28;20062;-64
2023/09/13 01:24:23;;;;;;;24.20;6.68;;;;;;;;;;4981253;28;20047;-50
2023/09/13 01:27:36;;;;;;;18.88;5.95;;;;;;;;;;4981383;28;20526;-46
2023/09/13 01:30:31;;;;;;;21.15;6.72;;;;;;;;;;4955968;28;20100;-47
2023/09/13 01:33:19;;;;;;;21.17;6.85;;;;;;;;;;4982938;28;20141;-52
2023/09/13 01:36:13;;;;;;;21.30;6.38;;;;;;;;;;4980594;28;20050;-52
2023/09/13 01:39:01;;;;;;;20.10;5.90;;;;;;;;;;4983141;28;20078;-60
2023/09/13 01:41:57;;;;;;;17.27;4.78;;;;;;;;;;4983621;28;20098;-59
2023/09/13 01:44:45;;;;;;;21.85;5.70;;;;;;;;;;4984913;28;20086;-59
2023/09/13 01:47:40;;;;;;;11.65;4.55;;;;;;;;;;4983849;28;20417;-59
2023/09/13 01:50:27;;;;;;;11.55;4.22;;;;;;;;;;4986590;28;20062;-59
2023/09/13 01:53:22;;;;;;;29.23;6.15;;;;;;;;;;4983948;28;20073;-59
2023/09/13 01:56:09;;;;;;;18.42;6.43;;;;;;;;;;4982481;28;20194;-49
2023/09/13 01:59:02;;;;;;;16.23;5.80;;;;;;;;;;4983781;28;20105;-50
2023/09/13 02:01:49;;;;;;;18.17;5.28;;;;;;;;;;4983309;28;20058;-50
2023/09/13 02:04:43;;;;;;;102.72;9.40;;;;;;;;;;4986460;28;20051;-47
2023/09/13 02:07:31;;;;;;;65.97;7.53;;;;;;;;;;4979820;28;20628;-60
2023/09/13 02:10:24;;;;;;;16.20;6.57;;;;;;;;;;4986882;28;20050;-60
2023/09/13 02:13:18;;;;;;;15.20;5.43;;;;;;;;;;4984920;28;20086;-60
2023/09/13 02:16:07;;;;;;;13.52;4.90;;;;;;;;;;4980258;28;20054;-60
2023/09/13 02:19:00;;;;;;;20.75;6.53;;;;;;;;;;4985899;28;20046;-60
2023/09/13 02:21:47;;;;;;;22.58;6.80;;;;;;;;;;4983656;28;20507;-59
2023/09/13 02:24:40;;;;;;;16.20;5.18;;;;;;;;;;4986646;28;20509;-63
2023/09/13 02:27:35;;;;;;;11.98;3.67;;;;;;;;;;4967169;28;20074;-63
2023/09/13 02:30:30;;;;;;;2.42;1.92;;;;;;;;;;4969678;28;20059;-64
2023/09/13 02:33:18;;;;;;;3.25;2.00;;;;;;;;;;4969150;28;20074;-64
2023/09/13 02:36:13;;;;;;;19.02;6.07;;;;;;;;;;4970444;28;20055;-63
2023/09/13 02:39:06;;;;;;;8.68;3.25;;;;;;;;;;4966249;28;20104;-63
2023/09/13 02:42:01;;;;;;;9.45;3.17;;;;;;;;;;4966944;28;20116;-63
2023/09/13 02:44:48;;;;;;;8.43;3.00;;;;;;;;;;4963572;28;20816;-65
2023/09/13 02:47:43;;;;;;;2.88;2.00;;;;;;;;;;4964494;28;20054;-64
2023/09/13 02:50:30;;;;;;;7.57;3.03;;;;;;;;;;4967029;28;20086;-65
2023/09/13 02:53:24;;;;;;;22.30;4.28;;;;;;;;;;4963361;28;20759;-66
2023/09/13 02:56:18;;;;;;;7.65;3.10;;;;;;;;;;4965355;28;20050;-60
2023/09/13 02:59:06;;;;;;;8.73;3.45;;;;;;;;;;4962186;28;20062;-60
2023/09/13 03:02:00;;;;;;;47.63;7.75;;;;;;;;;;4965963;28;20051;-60
2023/09/13 03:04:51;;;;;;;42.72;7.50;;;;;;;;;;4966320;28;20478;-60
2023/09/13 03:07:45;;;;;;;162.10;11.13;;;;;;;;;;4961409;28;20054;-60
2023/09/13 03:10:33;;;;;;;77.20;8.27;;;;;;;;;;4967109;28;20074;-60
2023/09/13 03:13:25;;;;;;;105.40;9.82;;;;;;;;;;4965349;28;20066;-60
2023/09/13 03:16:17;;;;;;;107.32;9.88;;;;;;;;;;4965945;28;20058;-60
2023/09/13 03:19:11;;;;;;;29.02;6.13;;;;;;;;;;4966566;28;20059;-60
2023/09/13 03:21:58;;;;;;;39.25;7.13;;;;;;;;;;4967147;28;21272;-59
2023/09/13 03:24:52;;;;;;;23.10;6.28;;;;;;;;;;4969224;28;20050;-60
2023/09/13 03:27:45;;;;;;;32.70;7.45;;;;;;;;;;4982618;28;20058;-59
2023/09/13 03:30:40;;;;;;;16.75;5.88;;;;;;;;;;4985427;28;20058;-60
2023/09/13 03:33:33;;;;;;;24.00;6.93;;;;;;;;;;4984029;28;20054;-65
2023/09/13 03:36:28;;;;;;;13.38;6.10;;;;;;;;;;4988509;28;20050;-65
2023/09/13 03:39:15;;;;;;;17.55;5.97;;;;;;;;;;4986373;28;20549;-65
2023/09/13 03:42:08;;;;;;;12.00;5.22;;;;;;;;;;4984944;28;20149;-65
2023/09/13 03:44:56;;;;;;;14.52;6.05;;;;;;;;;;4979123;28;20577;-65
2023/09/13 03:47:50;;;;;;;15.43;6.22;;;;;;;;;;4984507;28;20113;-49
2023/09/13 03:50:37;;;;;;;11.52;5.50;;;;;;;;;;4987412;28;20129;-50
2023/09/13 03:53:31;;;;;;;11.45;5.70;;;;;;;;;;4978417;28;20113;-48
2023/09/13 03:56:24;;;;;;;12.63;4.88;;;;;;;;;;4983112;28;20562;-50
2023/09/13 03:59:18;;;;;;;11.20;4.90;;;;;;;;;;4979298;28;20061;-60
2023/09/13 04:02:05;;;;;;;9.98;4.45;;;;;;;;;;4977327;28;20058;-54
2023/09/13 04:05:00;;;;;;;13.55;5.30;;;;;;;;;;4971958;28;20732;-47
2023/09/13 04:07:47;;;;;;;11.85;5.40;;;;;;;;;;4972320;28;20048;-52
2023/09/13 04:10:40;;;;;;;10.48;4.55;;;;;;;;;;4977427;28;20057;-52
2023/09/13 04:13:34;;;;;;;8.55;4.70;;;;;;;;;;4969589;28;20658;-51
2023/09/13 04:16:21;;;;;;;11.18;4.97;;;;;;;;;;4979364;28;20078;-51
2023/09/13 04:19:16;;;;;;;8.68;5.05;;;;;;;;;;4988665;28;20396;-55
2023/09/13 04:22:03;;;;;;;7.95;5.05;;;;;;;;;;4984830;28;20050;-60
2023/09/13 04:24:56;;;;;;;10.65;4.72;;;;;;;;;;4989511;28;20105;-59
2023/09/13 04:27:50;;;;;;;74.15;6.88;;;;;;;;;;4982465;28;20055;-60
2023/09/13 04:30:44;;;;;;;18.17;5.40;;;;;;;;;;4983914;28;20042;-60
2023/09/13 04:33:51;;;;;;;9.65;4.53;;;;;;;;;;4983757;28;20173;-60
2023/09/13 04:36:45;;;;;;;8.65;4.43;;;;;;;;;;4984054;28;20049;-50
2023/09/13 04:39:32;;;;;;;9.23;4.38;;;;;;;;;;4987863;28;20112;-61
2023/09/13 04:42:25;;;;;;;7.03;4.03;;;;;;;;;;4983743;28;20475;-60
2023/09/13 04:45:13;;;;;;;10.35;4.95;;;;;;;;;;4981362;28;20053;-60
2023/09/13 04:48:07;;;;;;;42.13;5.75;;;;;;;;;;4981699;28;20062;-60
2023/09/13 04:50:54;;;;;;;16.27;5.40;;;;;;;;;;4982594;28;20080;-60
2023/09/13 04:53:48;;;;;;;8.55;4.45;;;;;;;;;;4981948;28;20054;-60
2023/09/13 04:56:35;;;;;;;4.38;3.38;;;;;;;;;;4982971;28;20613;-60
2023/09/13 04:59:42;;;;;;;6.63;3.50;;;;;;;;;;4978375;28;20070;-61
2023/09/13 05:02:28;;;;;;;3.83;2.70;;;;;;;;;;4959185;28;20207;-60
2023/09/13 05:05:23;;;;;;;2.50;2.13;;;;;;;;;;4973568;28;20058;-60
2023/09/13 05:08:10;;;;;;;3.03;2.30;;;;;;;;;;4983427;28;20215;-60
2023/09/13 05:11:03;;;;;;;5.82;3.00;;;;;;;;;;4982590;28;20396;-60
2023/09/13 05:13:51;;;;;;;2.60;2.10;;;;;;;;;;4985540;28;20676;-58
2023/09/13 05:16:44;;;;;;;5.32;2.35;;;;;;;;;;4987685;28;20056;-65
2023/09/13 05:19:32;;;;;;;4.82;2.78;;;;;;;;;;4990080;28;20094;-65
2023/09/13 05:22:25;;;;;;;4.28;3.10;;;;;;;;;;4989668;28;20054;-65
2023/09/13 05:25:13;;;;;;;8.77;3.25;;;;;;;;;;4987711;28;20066;-65
2023/09/13 05:28:13;;;;;;;8.27;3.80;;;;;;;;;;4970236;28;20601;-65
2023/09/13 05:31:01;;;;;;;5.90;3.50;;;;;;;;;;4969473;28;20055;-50
2023/09/13 05:33:55;;;;;;;7.07;3.30;;;;;;;;;;4969287;28;20054;-65
2023/09/13 05:36:48;;;;;;;7.72;3.75;;;;;;;;;;4969728;28;20102;-65
2023/09/13 05:39:36;;;;;;;10.40;3.47;;;;;;;;;;4968322;28;20428;-65
2023/09/13 05:42:29;;;;;;;7.13;3.78;;;;;;;;;;4967564;28;20050;-65
2023/09/13 05:45:17;;;;;;;61.05;6.80;;;;;;;;;;4967756;28;20494;-65
2023/09/13 05:48:11;;;;;;;9.30;4.65;;;;;;;;;;4967267;28;20050;-50
2023/09/13 05:50:58;;;;;;;7.22;4.40;;;;;;;;;;4967235;28;20059;-57
2023/09/13 05:53:52;;;;;;;5.22;3.63;;;;;;;;;;4969442;28;20108;-52
2023/09/13 05:56:40;;;;;;;5.00;3.55;;;;;;;;;;4967596;28;20059;-50
2023/09/13 05:59:39;;;;;;;4.85;3.10;;;;;;;;;;4968134;28;20046;-60
2023/09/13 06:02:20;;;;;;;4.65;2.95;;;;;;;;;;4967350;28;20566;-60
2023/09/13 06:05:15;;;;;;;6.18;3.10;;;;;;;;;;4968148;28;20133;-60
2023/09/13 06:08:02;;;;;;;5.90;2.80;;;;;;;;;;4968632;28;20412;-60
2023/09/13 06:10:56;;;;;;;6.30;3.00;;;;;;;;;;4967142;28;20554;-60
2023/09/13 06:13:44;;;;;;;5.38;3.22;;;;;;;;;;4968734;28;20105;-60
2023/09/13 06:16:38;;;;;;;8.20;3.92;;;;;;;;;;4970455;28;20181;-63
2023/09/13 06:19:25;;;;;;;6.68;3.95;;;;;;;;;;4964631;28;20143;-64
2023/09/13 06:22:20;;;;;;;8.32;4.13;;;;;;;;;;4972919;28;20467;-64
2023/09/13 06:25:08;;;;;;;6.68;3.60;;;;;;;;;;4967965;28;20126;-63
2023/09/13 06:28:07;;;;;;;10.82;4.38;;;;;;;;;;4989683;28;20712;-59
2023/09/13 06:31:02;;;;;;;8.80;4.18;;;;;;;;;;4986980;28;20126;-53
2023/09/13 06:34:00;;;;;;;7.20;3.80;;;;;;;;;;4982304;28;20523;-56
2023/09/13 06:36:55;;;;;;;7.63;3.50;;;;;;;;;;4989334;28;20203;-55
2023/09/13 06:39:44;;;;;;;10.07;3.08;;;;;;;;;;4988002;28;20050;-55
2023/09/13 06:42:37;;;;;;;9.75;3.60;;;;;;;;;;4985023;28;20511;-55
2023/09/13 06:45:27;;;;;;;8.60;3.00;;;;;;;;;;4989902;28;20194;-60
2023/09/13 06:48:32;;;;;;;6.85;2.72;;;;;;;;;;4986010;28;20081;-60
2023/09/13 06:51:27;;;;;;;7.75;2.92;;;;;;;;;;4987859;28;20058;-60
2023/09/13 06:54:23;;;;;;;5.70;2.63;;;;;;;;;;4989031;28;20061;-61
2023/09/13 06:57:13;;;;;;;6.18;2.70;;;;;;;;;;4985799;28;20184;-60
2023/09/13 07:00:10;;;;;;;3.67;2.30;;;;;;;;;;4987533;28;20437;-50
2023/09/13 07:03:14;;;;;;;4.78;2.50;;;;;;;;;;4988815;28;20051;-50
2023/09/13 07:06:19;;;;;;;9.02;2.90;;;;;;;;;;4983950;28;20482;-49
2023/09/13 07:09:14;;;;;;;4.70;2.03;;;;;;;;;;4987057;28;20425;-48
2023/09/13 07:12:07;;;;;;;3.22;2.20;;;;;;;;;;4983532;28;20051;-53
2023/09/13 07:14:55;;;;;;;4.07;2.22;;;;;;;;;;4989910;28;20046;-65
2023/09/13 07:17:50;;;;;;;7.28;2.80;;;;;;;;;;4987723;28;20051;-63
2023/09/13 07:20:36;;;;;;;4.05;1.90;;;;;;;;;;4984027;28;20727;-63
2023/09/13 07:23:29;;;;;;;3.63;2.13;;;;;;;;;;4985354;28;20054;-65
2023/09/13 07:26:23;;;;;;;7.03;2.10;;;;;;;;;;4979394;28;20208;-53
2023/09/13 07:29:24;;;;;;;4.22;1.73;;;;;;;;;;4965998;28;20057;-58
2023/09/13 07:32:12;;;;;;;6.07;2.92;;;;;;;;;;4962135;28;20058;-58
2023/09/13 07:35:06;;;;;;;6.85;1.92;;;;;;;;;;4964463;28;20074;-58
2023/09/13 07:37:53;;;;;;;4.68;2.20;;;;;;;;;;4962617;28;20059;-57
2023/09/13 07:40:47;;;;;;;6.57;2.35;;;;;;;;;;4965997;28;20126;-58
2023/09/13 07:43:34;;;;;;;5.80;2.13;;;;;;;;;;4967358;28;20051;-61
2023/09/13 07:46:27;;;;;;;8.65;2.45;;;;;;;;;;4969096;28;20061;-61
2023/09/13 07:49:15;;;;;;;3.67;1.90;;;;;;;;;;4966796;28;20059;-60
2023/09/13 07:52:10;;;;;;;7.10;2.30;;;;;;;;;;4966121;28;20061;-60
2023/09/13 07:55:14;;;;;;;5.40;1.80;;;;;;;;;;4965025;28;20147;-64
2023/09/13 07:58:08;;;;;;;3.15;1.85;;;;;;;;;;4964678;28;20058;-65
2023/09/13 08:00:58;;;;;;;6.03;1.88;;;;;;;;;;4964108;28;20046;-64
2023/09/13 08:03:52;;;;;;;3.75;1.95;;;;;;;;;;4966853;28;20894;-63
2023/09/13 08:06:41;;;;;;;3.85;2.00;;;;;;;;;;4964387;28;20141;-63
2023/09/13 08:09:34;;;;;;;7.15;1.88;;;;;;;;;;4965868;28;20046;-63
2023/09/13 08:12:28;;;;;;;6.68;2.05;;;;;;;;;;4962252;28;20082;-50
2023/09/13 08:15:16;;;;;;;;;;;;;;;;;;4965856;28;20122;-51
2023/09/13 08:18:15;;;;;;;4.60;1.80;;;;;;;;;;4961396;28;20379;-50
2023/09/13 08:21:03;;;;;;;3.53;1.88;;;;;;;;;;4961904;28;20051;-59
2023/09/13 08:23:55;;;;;;;2.67;1.60;;;;;;;;;;4963056;28;20047;-62
2023/09/13 08:26:49;;;;;;;3.10;2.08;;;;;;;;;;4965407;28;20129;-62
2023/09/13 08:29:44;;;;;;;3.78;1.48;;;;;;;;;;4961592;28;20073;-62
2023/09/13 08:32:31;;;;;;;5.78;1.70;;;;;;;;;;4962681;28;20058;-62
2023/09/13 08:35:25;;;;;;;6.50;1.90;;;;;;;;;;4961029;28;20061;-62
2023/09/13 08:38:18;;;;;;;3.28;1.65;;;;;;;;;;4962082;28;20428;-63
2023/09/13 08:41:07;;;;;;;4.55;1.92;;;;;;;;;;4963205;28;20241;-60
2023/09/13 08:44:03;;;;;;;4.35;2.03;;;;;;;;;;4963968;28;20047;-59
2023/09/13 08:46:51;;;;;;;5.43;1.88;;;;;;;;;;4963750;28;20054;-59
2023/09/13 08:49:47;;;;;;;4.38;1.60;;;;;;;;;;4964282;28;20050;-52
2023/09/13 08:52:35;;;;;;;2.25;1.70;;;;;;;;;;4962870;28;20133;-57
2023/09/13 08:55:33;;;;;;;3.38;2.00;;;;;;;;;;4964700;28;20042;-55
2023/09/13 08:58:20;;;;;;;10.57;1.92;;;;;;;;;;4962635;28;20050;-57
2023/09/13 09:01:17;;;;;;;4.40;1.90;;;;;;;;;;4962342;28;20382;-54
2023/09/13 09:04:04;;;;;;;2.75;1.75;;;;;;;;;;4961825;28;20501;-55
2023/09/13 09:06:58;;;;;;;3.67;1.80;;;;;;;;;;4962877;28;20061;-58
2023/09/13 09:09:49;;;;;;;4.20;1.80;;;;;;;;;;4982245;28;20117;-49
2023/09/13 09:12:45;;;;;;;6.32;1.92;;;;;;;;;;4980714;28;20820;-50
2023/09/13 09:15:34;;;;;;;4.75;1.80;;;;;;;;;;4980778;28;20061;-48
2023/09/13 09:18:28;;;;;;;3.35;1.83;;;;;;;;;;4981783;28;20054;-62
2023/09/13 09:21:17;;;;;;;1.85;1.50;;;;;;;;;;4983943;28;20089;-62
2023/09/13 09:24:11;;;;;;;2.83;1.63;;;;;;;;;;4982223;28;20928;-62
2023/09/13 09:27:04;;;;;;;6.00;2.13;;;;;;;;;;4985218;28;20097;-62
2023/09/13 09:30:03;;;;;;;4.00;1.70;;;;;;;;;;4985791;28;20108;-63
2023/09/13 09:33:00;;;;;;;5.13;1.40;;;;;;;;;;4980365;28;20057;-62
2023/09/13 09:35:54;;;;;;;4.85;1.85;;;;;;;;;;4988132;28;20061;-49
2023/09/13 09:38:44;;;;;;;3.13;1.60;;;;;;;;;;4983566;28;22671;-47
2023/09/13 09:41:39;;;;;;;4.18;1.85;;;;;;;;;;4982743;28;20526;-52
2023/09/13 09:44:28;;;;;;;6.90;1.98;;;;;;;;;;4984067;28;20053;-51
2023/09/13 09:47:23;;;;;;;11.07;2.25;;;;;;;;;;4982296;28;20739;-60
2023/09/13 09:50:11;;;;;;;2.92;1.50;;;;;;;;;;4985276;28;20117;-50
2023/09/13 09:53:10;;;;;;;3.08;1.40;;;;;;;;;;4982742;28;20047;-53
2023/09/13 09:55:57;;;;;;;6.68;1.65;;;;;;;;;;4987019;28;20136;-49
2023/09/13 09:58:51;;;;;;;6.07;1.80;;;;;;;;;;4989288;28;20421;-50
2023/09/13 10:01:39;;;;;;;4.07;1.90;;;;;;;;;;4983567;28;20498;-47
2023/09/13 10:04:44;;;;;;;7.00;1.77;;;;;;;;;;4979565;28;20691;-59
2023/09/13 10:07:31;;;;;;;3.85;1.67;;;;;;;;;;4987464;28;20057;-59
2023/09/13 10:10:33;;;;;;;3.88;1.52;;;;;;;;;;4985729;28;20065;-59
2023/09/13 10:13:25;;;;;;;3.65;1.70;;;;;;;;;;4987948;28;20058;-59
2023/09/13 10:16:12;;;;;;;3.55;1.75;;;;;;;;;;4986873;28;20062;-60
2023/09/13 10:19:11;;;;;;;3.45;1.33;;;;;;;;;;4990387;28;20081;-56
2023/09/13 10:21:56;;;;;;;8.70;2.28;;;;;;;;;;4986094;28;20047;-58
2023/09/13 10:24:54;;;;;;;4.60;1.90;;;;;;;;;;4986577;28;21230;-59
2023/09/13 10:27:56;;;;;;;3.95;1.65;;;;;;;;;;4985433;28;20057;-55
2023/09/13 10:30:51;;;;;;;1.88;1.38;;;;;;;;;;4985170;28;20113;-55
2023/09/13 10:33:40;;;;;;;3.97;1.50;;;;;;;;;;4986815;28;20061;-48
2023/09/13 10:36:42;;;;;;;3.03;1.20;;;;;;;;;;4985313;28;20298;-47
2023/09/13 10:39:56;;;;;;;3.00;1.60;;;;;;;;;;4986578;28;20141;-48
2023/09/13 10:42:44;;;;;;;3.67;1.67;;;;;;;;;;4983779;28;20050;-48
2023/09/13 10:45:41;;;;;;;3.60;1.55;;;;;;;;;;4986145;28;20054;-61
2023/09/13 10:48:25;;;;;;;2.78;1.70;;;;;;;;;;4990089;28;20054;-53
2023/09/13 10:51:19;;;;;;;3.30;1.40;;;;;;;;;;4990061;28;20664;-52
2023/09/13 10:54:06;;;;;;;2.28;1.63;;;;;;;;;;4986426;28;20053;-47
2023/09/13 10:57:00;;;;;;;4.50;1.60;;;;;;;;;;4989256;28;20050;-48
2023/09/13 10:59:48;;;;;;;10.15;2.10;;;;;;;;;;4983161;28;20046;-50
2023/09/13 11:02:43;;;;;;;6.90;2.13;;;;;;;;;;4985660;28;20062;-50
2023/09/13 11:05:33;;;;;;;5.05;1.77;;;;;;;;;;4985004;28;20054;-50
2023/09/13 11:08:29;;;;;;;2.47;1.60;;;;;;;;;;4987892;28;20062;-53
2023/09/13 11:11:18;;;;;;;2.53;1.77;;;;;;;;;;4986862;28;20114;-60
2023/09/13 11:14:11;;;;;;;2.92;1.50;;;;;;;;;;4990645;28;20050;-62
2023/09/13 11:17:11;;;;;;;2.60;1.80;;;;;;;;;;4989190;28;20047;-60
2023/09/13 11:20:24;;;;;;;2.45;1.60;;;;;;;;;;4987982;28;20052;-60
2023/09/13 11:23:18;;;;;;;2.25;1.40;;;;;;;;;;4986818;28;20054;-60
2023/09/13 11:26:45;;;;;;;2.65;1.55;;;;;;;;;;4981729;28;20053;-60
2023/09/13 11:29:44;;;;;;;2.20;1.45;;;;;;;;;;4964281;28;22138;-59
2023/09/13 11:32:31;;;;;;;2.30;1.65;;;;;;;;;;4962642;28;20571;-59
2023/09/13 11:35:26;;;;;;;2.88;1.48;;;;;;;;;;4967123;28;20066;-59
2023/09/13 11:38:13;;;;;;;4.30;1.60;;;;;;;;;;4969168;28;20058;-60
2023/09/13 11:41:07;;;;;;;2.78;1.70;;;;;;;;;;4968814;28;20065;-62
2023/09/13 11:43:54;;;;;;;3.15;1.80;;;;;;;;;;4965165;28;20046;-51
2023/09/13 11:47:00;;;;;;;2.15;1.45;;;;;;;;;;4968950;28;20086;-53
2023/09/13 11:49:48;;;;;;;3.70;1.63;;;;;;;;;;4966753;28;20058;-48
2023/09/13 11:53:01;;;;;;;2.80;1.75;;;;;;;;;;4963484;28;20050;-50
2023/09/13 11:55:55;;;;;;;3.53;1.50;;;;;;;;;;4964415;28;20047;-49
2023/09/13 11:59:06;;;;;;;7.90;1.75;;;;;;;;;;4968457;28;20059;-60
2023/09/13 12:01:55;;;;;;;2.95;2.00;;;;;;;;;;4966800;28;20069;-60
2023/09/13 12:04:50;;;;;;;3.22;1.90;;;;;;;;;;4962233;28;20059;-60
2023/09/13 12:07:56;;;;;;;4.28;1.70;;;;;;;;;;4964851;28;20392;-60
2023/09/13 12:10:49;;;;;;;5.75;1.90;;;;;;;;;;4967594;28;20101;-60
2023/09/13 12:13:44;;;;;;;5.05;1.70;;;;;;;;;;4960755;28;20509;-60
2023/09/13 12:16:52;;;;;;;3.28;1.95;;;;;;;;;;4966390;28;20058;-61
2023/09/13 12:19:37;;;;;;;3.03;1.88;;;;;;;;;;4960530;28;20053;-60
2023/09/13 12:22:30;;;;;;;3.03;1.70;;;;;;;;;;4962357;28;20105;-60
2023/09/13 12:25:18;;;;;;;4.70;1.92;;;;;;;;;;4965019;28;20105;-61
2023/09/13 12:28:18;;;;;;;4.63;2.10;;;;;;;;;;4985517;28;20114;-60
2023/09/13 12:31:13;;;;;;;3.50;1.70;;;;;;;;;;4985239;28;20054;-59
2023/09/13 12:34:08;;;;;;;3.78;1.63;;;;;;;;;;4985093;28;20089;-59
2023/09/13 12:36:56;;;;;;;4.30;1.80;;;;;;;;;;4984173;28;20042;-60
2023/09/13 12:39:49;;;;;;;3.75;1.75;;;;;;;;;;4986273;28;20059;-62
2023/09/13 12:42:38;;;;;;;4.63;2.00;;;;;;;;;;4986547;28;20050;-62
2023/09/13 12:45:32;;;;;;;5.00;2.05;;;;;;;;;;4985637;28;20458;-62
2023/09/13 12:48:20;;;;;;;3.28;1.95;;;;;;;;;;4987456;28;20058;-62
2023/09/13 12:51:16;;;;;;;5.43;1.77;;;;;;;;;;4988757;28;20561;-62
2023/09/13 12:54:06;;;;;;;2.47;1.98;;;;;;;;;;4985791;28;20133;-62
2023/09/13 12:57:03;;;;;;;2.17;1.73;;;;;;;;;;4985769;28;20050;-49
2023/09/13 12:59:50;;;;;;;4.35;1.63;;;;;;;;;;4990163;28;20061;-47
2023/09/13 13:03:04;;;;;;;6.40;2.00;;;;;;;;;;4986579;28;20427;-51
2023/09/13 13:06:01;;;;;;;2.42;1.63;;;;;;;;;;4981492;28;20141;-60
2023/09/13 13:08:46;;;;;;;3.80;1.70;;;;;;;;;;4983121;28;20050;-62
2023/09/13 13:11:40;;;;;;;3.10;2.05;;;;;;;;;;4986300;28;20058;-62
2023/09/13 13:14:34;;;;;;;2.17;1.73;;;;;;;;;;4988371;28;20065;-62
2023/09/13 13:17:23;;;;;;;4.80;2.03;;;;;;;;;;4987301;28;20076;-62
2023/09/13 13:20:22;;;;;;;3.47;2.20;;;;;;;;;;4984950;28;20058;-63
2023/09/13 13:23:37;;;;;;;6.72;1.90;;;;;;;;;;4987907;28;20050;-60
2023/09/13 13:26:36;;;;;;;2.92;1.88;;;;;;;;;;4975575;28;20113;-60
2023/09/13 13:29:38;;;;;;;3.33;1.77;;;;;;;;;;4961033;28;20046;-60
2023/09/13 13:32:31;;;;;;;5.22;1.80;;;;;;;;;;4967310;28;20465;-61
2023/09/13 13:35:26;;;;;;;5.30;1.80;;;;;;;;;;4963604;28;20082;-62
2023/09/13 13:38:19;;;;;;;2.92;1.75;;;;;;;;;;4968626;28;20057;-60
2023/09/13 13:41:15;;;;;;;3.42;1.80;;;;;;;;;;4973500;28;20051;-60
2023/09/13 13:44:01;;;;;;;4.75;1.92;;;;;;;;;;4972928;28;20450;-60
2023/09/13 13:46:55;;;;;;;2.90;1.67;;;;;;;;;;4973087;28;20109;-59
2023/09/13 13:49:42;;;;;;;2.10;1.70;;;;;;;;;;4971791;28;20059;-60
2023/09/13 13:52:36;;;;;;;2.35;1.80;;;;;;;;;;4968892;28;20442;-52
2023/09/13 13:55:23;;;;;;;2.63;1.70;;;;;;;;;;4970392;28;20480;-51
2023/09/13 13:58:17;;;;;;;2.05;1.65;;;;;;;;;;4965907;28;21581;-50
2023/09/13 14:01:11;;;;;;;4.38;1.70;;;;;;;;;;4968708;28;20058;-50
2023/09/13 14:03:58;;;;;;;7.65;2.08;;;;;;;;;;4973395;28;20506;-60
2023/09/13 14:06:52;;;;;;;3.95;1.60;;;;;;;;;;4970435;28;20047;-61
2023/09/13 14:09:46;;;;;;;2.30;1.48;;;;;;;;;;4965489;28;20046;-60
2023/09/13 14:12:33;;;;;;;2.28;1.90;;;;;;;;;;4964972;28;20499;-60
2023/09/13 14:15:33;;;;;;;1.83;1.42;;;;;;;;;;4969348;28;20070;-61
2023/09/13 14:18:28;;;;;;;2.83;1.70;;;;;;;;;;4970143;28;20143;-61
2023/09/13 14:21:22;;;;;;;3.78;1.50;;;;;;;;;;4965899;28;20064;-50
2023/09/13 14:24:09;;;;;;;2.83;1.45;;;;;;;;;;4966583;28;20055;-49
2023/09/13 14:27:15;;;;;;;2.55;1.90;;;;;;;;;;4966177;28;20062;-48
2023/09/13 14:30:29;;;;;;;1.88;1.25;;;;;;;;;;4981092;28;20057;-52
2023/09/13 14:33:04;;;;;;;2.03;1.48;;;;;;;;;;4987723;28;20553;-62
2023/09/13 14:35:52;;;;;;;2.28;1.60;;;;;;;;;;4984042;28;20061;-63
2023/09/13 14:38:45;;;;;;;1.55;1.38;;;;;;;;;;4987172;28;20498;-64
2023/09/13 14:41:32;;;;;;;4.82;1.67;;;;;;;;;;4981102;28;20062;-63
2023/09/13 14:44:26;;;;;;;3.80;1.30;;;;;;;;;;4973628;28;20579;-64
2023/09/13 14:47:15;;;;;;;2.95;1.77;;;;;;;;;;4975277;28;20510;-63
2023/09/13 14:50:07;;;;;;;3.38;1.60;;;;;;;;;;4985129;28;20111;-51
2023/09/13 14:52:54;;;;;;;4.82;2.20;;;;;;;;;;4983623;28;20972;-62
2023/09/13 14:55:51;;;;;;;2.50;1.52;;;;;;;;;;4979472;28;20058;-62
2023/09/13 14:58:36;;;;;;;5.15;1.70;;;;;;;;;;4981806;28;20054;-62
2023/09/13 15:01:30;;;;;;;3.05;1.45;;;;;;;;;;4980835;28;20066;-62
2023/09/13 15:04:17;;;;;;;1.80;1.55;;;;;;;;;;4981744;28;20046;-62
2023/09/13 15:07:12;;;;;;;3.78;1.48;;;;;;;;;;4981044;28;20042;-62
2023/09/13 15:10:05;;;;;;;4.38;1.58;;;;;;;;;;4983376;28;20116;-61
2023/09/13 15:12:56;;;;;;;1.67;1.27;;;;;;;;;;4984679;28;20050;-61
2023/09/13 15:15:49;;;;;;;3.47;1.50;;;;;;;;;;4984719;28;20050;-60
2023/09/13 15:18:43;;;;;;;3.78;1.63;;;;;;;;;;4988755;28;20078;-60
2023/09/13 15:21:30;;;;;;;3.47;1.65;;;;;;;;;;4980655;28;20503;-61
2023/09/13 15:24:25;;;;;;;1.92;1.50;;;;;;;;;;4980226;28;20156;-61
2023/09/13 15:27:17;;;;;;;2.10;1.60;;;;;;;;;;4979908;28;20141;-56
2023/09/13 15:30:17;;;;;;;2.30;1.73;;;;;;;;;;4962387;28;20058;-55
2023/09/13 15:33:06;;;;;;;2.53;1.35;;;;;;;;;;4965435;28;20422;-57
2023/09/13 15:35:59;;;;;;;1.88;1.38;;;;;;;;;;4966977;28;20057;-52
2023/09/13 15:38:46;;;;;;;2.83;1.50;;;;;;;;;;4965275;28;20170;-51
2023/09/13 15:41:40;;;;;;;5.53;1.65;;;;;;;;;;4968403;28;20054;-61
2023/09/13 15:44:27;;;;;;;4.20;1.70;;;;;;;;;;4955233;28;20142;-59
2023/09/13 15:47:21;;;;;;;2.60;1.70;;;;;;;;;;4962289;28;20639;-59
2023/09/13 15:50:08;;;;;;;2.45;1.85;;;;;;;;;;4961846;28;20054;-59
2023/09/13 15:53:02;;;;;;;7.10;1.85;;;;;;;;;;4960040;28;20054;-59
2023/09/13 15:55:49;;;;;;;1.75;1.40;;;;;;;;;;4960498;28;20058;-59
2023/09/13 15:58:43;;;;;;;3.40;1.80;;;;;;;;;;4963987;28;20062;-58
2023/09/13 16:01:30;;;;;;;3.15;1.77;;;;;;;;;;4964605;28;20062;-59
2023/09/13 16:04:24;;;;;;;2.22;1.45;;;;;;;;;;4962465;28;20050;-58
2023/09/13 16:07:11;;;;;;;3.97;1.63;;;;;;;;;;4962524;28;20047;-59
2023/09/13 16:10:07;;;;;;;2.10;1.67;;;;;;;;;;4964032;28;20566;-60
2023/09/13 16:12:54;;;;;;;2.60;1.67;;;;;;;;;;4965515;28;20098;-60
2023/09/13 16:15:48;;;;;;;3.67;1.55;;;;;;;;;;4965226;28;21044;-60
2023/09/13 16:18:35;;;;;;;1.45;1.35;;;;;;;;;;4962868;28;21252;-60
2023/09/13 16:21:29;;;;;;;3.35;2.03;;;;;;;;;;4963010;28;20066;-60
2023/09/13 16:24:16;;;;;;;3.25;1.60;;;;;;;;;;4959530;28;20067;-60
2023/09/13 16:27:24;;;;;;;2.70;1.67;;;;;;;;;;4961509;28;20051;-60
2023/09/13 16:30:18;;;;;;;1.95;1.73;;;;;;;;;;4962067;28;20065;-59
2023/09/13 16:33:12;;;;;;;3.20;1.40;;;;;;;;;;4963539;28;20060;-50
2023/09/13 16:36:00;;;;;;;2.40;1.70;;;;;;;;;;4966175;28;20059;-59
2023/09/13 16:38:53;;;;;;;2.28;1.63;;;;;;;;;;4965555;28;20046;-59
2023/09/13 16:41:42;;;;;;;2.40;1.65;;;;;;;;;;4962029;28;20050;-59
2023/09/13 16:44:36;;;;;;;5.10;1.63;;;;;;;;;;4964184;28;20055;-60
2023/09/13 16:47:23;;;;;;;1.80;1.60;;;;;;;;;;4963516;28;20115;-60
2023/09/13 16:50:17;;;;;;;4.93;1.67;;;;;;;;;;4959544;28;20563;-60
2023/09/13 16:53:11;;;;;;;2.53;1.85;;;;;;;;;;4962037;28;20054;-58
2023/09/13 16:56:05;;;;;;;2.40;1.42;;;;;;;;;;4960599;28;20043;-61
2023/09/13 16:58:52;;;;;;;3.80;1.70;;;;;;;;;;4960011;28;20470;-58
2023/09/13 17:01:46;;;;;;;2.03;1.70;;;;;;;;;;4956842;28;20090;-59
2023/09/13 17:04:33;;;;;;;2.42;1.80;;;;;;;;;;4963193;28;20055;-59
2023/09/13 17:07:27;;;;;;;1.77;1.52;;;;;;;;;;4960670;28;20491;-58
2023/09/13 17:09:54;;;;;;;3.25;1.50;;;;;;;;;;4963325;28;20058;-60
2023/09/13 17:12:48;;;;;;;4.88;1.75;;;;;;;;;;4964232;28;20541;-58